Time;durP1;ratioP1;P1;durP2;ratioP2;P2;SDS_P1;SDS_P2;PMS_P1;PMS_P2;Temp;Humidity;BMP_temperature;BMP_pressure;BME280_temperature;BME280_humidity;BME280_pressure;Samples;Min_cycle;Max_cycle;Signal;HPM_P1;HPM_P2
2021/07/02 00:01:41;;;;;;;11.05;5.65;;;16.80;72.90;;;;;;5033268;28;20034;-74
2021/07/02 00:04:07;;;;;;;10.35;5.72;;;16.80;73.10;;;;;;5038116;28;20033;-76
2021/07/02 00:06:33;;;;;;;9.48;6.22;;;16.80;73.30;;;;;;5052256;28;20102;-76
2021/07/02 00:08:59;;;;;;;12.73;7.07;;;16.70;73.60;;;;;;5054137;28;20474;-75
2021/07/02 00:11:25;;;;;;;11.35;6.53;;;16.70;73.90;;;;;;5043205;28;20129;-81
2021/07/02 00:13:50;;;;;;;11.95;6.47;;;16.70;74.00;;;;;;5033735;28;20074;-75
2021/07/02 00:16:16;;;;;;;11.13;6.40;;;16.60;74.10;;;;;;5032899;28;20053;-76
2021/07/02 00:18:42;;;;;;;9.45;6.10;;;16.60;74.30;;;;;;5032255;28;20025;-75
2021/07/02 00:21:07;;;;;;;10.02;6.72;;;16.60;74.30;;;;;;5016047;28;20033;-76
2021/07/02 00:23:33;;;;;;;10.43;7.00;;;16.60;74.50;;;;;;5034042;28;20036;-77
2021/07/02 00:25:59;;;;;;;10.10;6.07;;;16.60;74.60;;;;;;5043446;28;20132;-76
2021/07/02 00:28:25;;;;;;;10.07;6.50;;;16.60;74.90;;;;;;5033081;28;20362;-75
2021/07/02 00:30:51;;;;;;;10.38;7.00;;;16.60;75.00;;;;;;5032087;28;20080;-75
2021/07/02 00:33:18;;;;;;;11.15;6.53;;;16.60;75.00;;;;;;5030729;28;20033;-76
2021/07/02 00:35:45;;;;;;;9.82;6.30;;;16.60;74.90;;;;;;5032162;28;20420;-75
2021/07/02 00:38:11;;;;;;;11.23;7.05;;;16.60;75.00;;;;;;5029250;28;20033;-74
2021/07/02 00:40:37;;;;;;;11.57;6.93;;;16.60;74.90;;;;;;5012333;28;20080;-75
2021/07/02 00:43:03;;;;;;;13.13;7.05;;;16.60;74.70;;;;;;5011841;28;20461;-78
2021/07/02 00:45:28;;;;;;;11.43;6.88;;;16.60;74.90;;;;;;5022423;28;20132;-75
2021/07/02 00:47:54;;;;;;;11.20;6.88;;;16.60;75.10;;;;;;5033112;28;20056;-75
2021/07/02 00:50:20;;;;;;;11.15;7.03;;;16.50;75.10;;;;;;5020775;28;20037;-75
2021/07/02 00:52:46;;;;;;;11.68;7.53;;;16.50;75.30;;;;;;5014014;28;20242;-75
2021/07/02 00:55:12;;;;;;;12.38;7.47;;;16.50;75.50;;;;;;5050763;28;20025;-75
2021/07/02 00:57:38;;;;;;;13.73;8.35;;;16.50;75.60;;;;;;5011757;28;20100;-75
2021/07/02 01:00:06;;;;;;;15.55;8.20;;;16.50;75.70;;;;;;5019007;28;20044;-75
2021/07/02 01:02:32;;;;;;;14.65;8.55;;;16.40;75.30;;;;;;5013311;28;20113;-75
2021/07/02 01:04:58;;;;;;;12.73;8.35;;;16.40;75.20;;;;;;5013604;28;20129;-74
2021/07/02 01:07:24;;;;;;;16.48;10.20;;;16.40;75.20;;;;;;5009613;28;20045;-75
2021/07/02 01:09:50;;;;;;;13.52;8.73;;;16.30;75.10;;;;;;5013273;28;20052;-75
2021/07/02 01:12:16;;;;;;;13.85;9.85;;;16.20;75.40;;;;;;5027356;28;20050;-75
2021/07/02 01:14:42;;;;;;;14.73;10.65;;;16.20;75.70;;;;;;5031632;28;20034;-75
2021/07/02 01:17:08;;;;;;;14.68;10.30;;;16.20;75.50;;;;;;5031538;28;20045;-77
2021/07/02 01:19:34;;;;;;;15.80;9.27;;;16.20;75.30;;;;;;5011526;28;20053;-75
2021/07/02 01:22:00;;;;;;;16.60;9.88;;;16.10;75.40;;;;;;5011552;28;20121;-76
2021/07/02 01:24:26;;;;;;;15.18;10.02;;;16.10;75.20;;;;;;5040733;28;20159;-74
2021/07/02 01:26:52;;;;;;;15.95;9.25;;;16.10;75.00;;;;;;5019077;28;20099;-77
2021/07/02 01:29:19;;;;;;;15.70;9.60;;;16.10;75.20;;;;;;5012356;28;20030;-76
2021/07/02 01:31:45;;;;;;;15.82;9.90;;;16.10;75.40;;;;;;5026305;28;20040;-76
2021/07/02 01:34:10;;;;;;;16.48;10.07;;;16.00;75.70;;;;;;5030335;28;20029;-75
2021/07/02 01:36:36;;;;;;;15.00;10.40;;;16.00;75.80;;;;;;5031004;28;20034;-75
2021/07/02 01:39:04;;;;;;;16.08;10.40;;;15.90;75.80;;;;;;5030626;28;20624;-75
2021/07/02 01:41:29;;;;;;;15.93;10.15;;;15.90;75.90;;;;;;5031872;28;20164;-76
2021/07/02 01:43:55;;;;;;;16.23;11.15;;;15.90;76.00;;;;;;5029263;28;20112;-75
2021/07/02 01:46:21;;;;;;;15.23;10.20;;;15.90;76.20;;;;;;5022691;28;20041;-76
2021/07/02 01:48:46;;;;;;;15.05;10.55;;;15.90;76.30;;;;;;5030487;28;20037;-75
2021/07/02 01:51:13;;;;;;;18.77;11.60;;;15.90;76.40;;;;;;5012642;28;20113;-75
2021/07/02 01:53:38;;;;;;;16.52;11.63;;;15.90;76.20;;;;;;5025834;28;20037;-75
2021/07/02 01:56:05;;;;;;;15.73;11.73;;;15.90;76.10;;;;;;5051576;28;20052;-74
2021/07/02 01:58:31;;;;;;;16.83;11.93;;;15.80;76.20;;;;;;5051665;28;20033;-81
2021/07/02 02:00:57;;;;;;;18.27;12.35;;;15.80;76.30;;;;;;5019255;28;20033;-74
2021/07/02 02:03:22;;;;;;;15.25;10.68;;;15.70;76.40;;;;;;5024305;28;20029;-75
2021/07/02 02:05:48;;;;;;;17.25;12.88;;;15.70;76.60;;;;;;5051649;28;20044;-76
2021/07/02 02:08:15;;;;;;;16.33;11.82;;;15.70;76.90;;;;;;5032498;28;20461;-79
2021/07/02 02:10:41;;;;;;;15.75;11.70;;;15.60;77.00;;;;;;5011804;28;20397;-75
2021/07/02 02:13:06;;;;;;;19.23;12.45;;;15.60;77.30;;;;;;5009616;28;20044;-76
2021/07/02 02:15:32;;;;;;;16.73;12.45;;;15.60;77.50;;;;;;5018408;28;20103;-80
2021/07/02 02:17:58;;;;;;;17.88;12.18;;;15.50;77.80;;;;;;5031179;28;20115;-75
2021/07/02 02:20:24;;;;;;;20.35;13.45;;;15.50;77.80;;;;;;5018382;28;20042;-75
2021/07/02 02:22:49;;;;;;;20.50;14.23;;;15.50;77.80;;;;;;5012933;28;20456;-79
2021/07/02 02:25:15;;;;;;;19.45;13.55;;;15.40;77.90;;;;;;5027577;28;20061;-75
2021/07/02 02:27:41;;;;;;;19.27;13.60;;;15.30;77.90;;;;;;5026624;28;20038;-76
2021/07/02 02:30:08;;;;;;;18.33;12.88;;;15.30;77.90;;;;;;5027335;28;20068;-75
2021/07/02 02:32:35;;;;;;;20.50;12.73;;;15.20;77.90;;;;;;5029454;28;20044;-75
2021/07/02 02:35:01;;;;;;;16.25;11.43;;;15.20;78.00;;;;;;5029543;28;20120;-75
2021/07/02 02:37:27;;;;;;;17.85;12.65;;;15.10;78.20;;;;;;5031573;28;20108;-74
2021/07/02 02:39:53;;;;;;;18.20;12.35;;;15.10;78.30;;;;;;5029567;28;20117;-75
2021/07/02 02:42:19;;;;;;;19.13;12.13;;;15.10;78.20;;;;;;5030826;28;20044;-80
2021/07/02 02:44:44;;;;;;;15.77;11.02;;;15.10;78.30;;;;;;5030671;28;20029;-75
2021/07/02 02:47:10;;;;;;;18.20;12.73;;;15.10;78.10;;;;;;5013192;28;20092;-74
2021/07/02 02:49:35;;;;;;;17.00;11.00;;;15.00;78.20;;;;;;5016736;28;20061;-75
2021/07/02 02:52:01;;;;;;;20.52;12.38;;;15.00;77.90;;;;;;5009695;28;20030;-77
2021/07/02 02:54:27;;;;;;;16.45;11.55;;;15.00;77.70;;;;;;5039750;28;20025;-78
2021/07/02 02:57:05;;;;;;;16.77;11.55;;;15.00;77.70;;;;;;5037519;28;20393;-75
2021/07/02 02:59:31;;;;;;;18.08;12.00;;;14.90;77.90;;;;;;5009535;28;20394;-76
2021/07/02 03:01:58;;;;;;;16.95;10.88;;;14.80;78.20;;;;;;5011602;28;20477;-75
2021/07/02 03:04:24;;;;;;;18.27;11.98;;;14.90;78.30;;;;;;5044069;28;20037;-76
2021/07/02 03:06:50;;;;;;;20.67;11.93;;;14.80;78.60;;;;;;5050517;28;20060;-75
2021/07/02 03:09:16;;;;;;;16.50;11.25;;;14.80;78.80;;;;;;5029327;28;20119;-75
2021/07/02 03:11:44;;;;;;;18.38;12.52;;;14.80;78.80;;;;;;5029475;28;20561;-75
2021/07/02 03:14:10;;;;;;;18.13;12.25;;;14.70;78.90;;;;;;5028762;28;20036;-76
2021/07/02 03:16:36;;;;;;;16.83;12.43;;;14.60;79.10;;;;;;5020777;28;20026;-76
2021/07/02 03:19:02;;;;;;;15.60;10.82;;;14.60;79.30;;;;;;5017200;28;20060;-77
2021/07/02 03:21:27;;;;;;;16.23;11.60;;;14.60;79.40;;;;;;5026181;28;20034;-74
2021/07/02 03:23:53;;;;;;;17.00;11.75;;;14.60;79.40;;;;;;5020220;28;20381;-75
2021/07/02 03:26:19;;;;;;;18.58;12.73;;;14.60;79.60;;;;;;5028703;28;20120;-79
2021/07/02 03:28:44;;;;;;;22.25;12.90;;;14.60;79.60;;;;;;5030346;28;20484;-75
2021/07/02 03:31:10;;;;;;;17.00;11.50;;;14.60;79.80;;;;;;5020008;28;20468;-75
2021/07/02 03:33:36;;;;;;;16.15;11.05;;;14.50;79.80;;;;;;5025625;28;20536;-74
2021/07/02 03:36:01;;;;;;;17.08;11.27;;;14.50;79.90;;;;;;5009203;28;20034;-76
2021/07/02 03:38:27;;;;;;;21.40;13.02;;;14.40;80.10;;;;;;5027159;28;20032;-77
2021/07/02 03:40:53;;;;;;;19.90;11.98;;;14.50;80.20;;;;;;5023991;28;20038;-74
2021/07/02 03:43:18;;;;;;;16.40;11.15;;;14.40;80.20;;;;;;5025184;28;20065;-75
2021/07/02 03:45:44;;;;;;;19.90;12.77;;;14.40;80.20;;;;;;5029611;28;20439;-75
2021/07/02 03:48:11;;;;;;;17.20;12.25;;;14.40;80.40;;;;;;5029664;28;20040;-75
2021/07/02 03:50:37;;;;;;;18.85;12.65;;;14.40;80.50;;;;;;5015771;28;20112;-75
2021/07/02 03:53:03;;;;;;;18.33;11.57;;;14.30;80.60;;;;;;5015305;28;20437;-79
2021/07/02 03:55:28;;;;;;;18.15;11.52;;;14.30;80.50;;;;;;5048478;28;20472;-75
2021/07/02 03:57:54;;;;;;;17.38;11.82;;;14.30;80.50;;;;;;5048554;28;20027;-74
2021/07/02 04:00:20;;;;;;;15.63;10.90;;;14.30;80.30;;;;;;5047151;28;20396;-75
2021/07/02 04:02:46;;;;;;;16.65;10.90;;;14.30;80.20;;;;;;5029458;28;20026;-75
2021/07/02 04:05:12;;;;;;;16.45;11.60;;;14.30;80.10;;;;;;5012500;28;20099;-76
2021/07/02 04:07:37;;;;;;;18.40;11.38;;;14.30;80.10;;;;;;5010365;28;20048;-79
2021/07/02 04:10:04;;;;;;;16.00;10.60;;;14.30;79.90;;;;;;5008286;28;20030;-74
2021/07/02 04:12:30;;;;;;;18.40;11.10;;;14.30;79.80;;;;;;5010141;28;20177;-76
2021/07/02 04:14:56;;;;;;;17.67;11.32;;;14.30;79.80;;;;;;5007545;28;20149;-74
2021/07/02 04:17:22;;;;;;;15.20;10.25;;;14.40;79.70;;;;;;5023475;28;20194;-75
2021/07/02 04:19:47;;;;;;;16.80;10.35;;;14.40;79.60;;;;;;5008029;28;20108;-75
2021/07/02 04:22:13;;;;;;;15.75;11.00;;;14.50;79.50;;;;;;5015786;28;20521;-78
2021/07/02 04:24:39;;;;;;;17.02;10.48;;;14.50;79.30;;;;;;5016937;28;20457;-80
2021/07/02 04:27:04;;;;;;;15.43;10.73;;;14.50;79.20;;;;;;5009721;28;20038;-75
2021/07/02 04:29:30;;;;;;;18.98;10.82;;;14.50;79.10;;;;;;5010027;28;20072;-76
2021/07/02 04:31:56;;;;;;;20.55;10.85;;;14.60;78.90;;;;;;5025290;28;20099;-75
2021/07/02 04:34:22;;;;;;;21.17;11.02;;;14.60;78.70;;;;;;5027851;28;20456;-75
2021/07/02 04:36:48;;;;;;;17.55;10.60;;;14.70;78.50;;;;;;5028268;28;20446;-75
2021/07/02 04:39:14;;;;;;;16.38;11.48;;;14.80;78.40;;;;;;5029214;28;20034;-75
2021/07/02 04:41:40;;;;;;;17.38;11.20;;;14.80;78.00;;;;;;5030417;28;20025;-75
2021/07/02 04:44:06;;;;;;;17.70;10.45;;;14.90;77.90;;;;;;5033007;28;20025;-74
2021/07/02 04:46:32;;;;;;;16.23;10.65;;;15.00;77.80;;;;;;5032693;28;20049;-75
2021/07/02 04:48:57;;;;;;;17.70;11.45;;;15.10;77.80;;;;;;5026388;28;20038;-78
2021/07/02 04:51:23;;;;;;;17.10;10.95;;;15.10;77.80;;;;;;5030914;28;20041;-74
2021/07/02 04:53:49;;;;;;;19.75;11.57;;;15.20;77.70;;;;;;5042287;28;20052;-75
2021/07/02 04:56:14;;;;;;;16.17;10.50;;;15.30;77.50;;;;;;5048649;28;20056;-75
2021/07/02 04:58:41;;;;;;;19.73;11.55;;;15.30;77.50;;;;;;5012263;28;20040;-75
2021/07/02 05:01:07;;;;;;;17.00;11.40;;;15.40;77.20;;;;;;5019605;28;20457;-76
2021/07/02 05:03:33;;;;;;;20.23;12.00;;;15.40;77.50;;;;;;5033577;28;20517;-75
2021/07/02 05:06:02;;;;;;;19.42;13.00;;;15.50;77.20;;;;;;5011430;28;20046;-78
2021/07/02 05:08:28;;;;;;;20.20;13.10;;;15.60;77.10;;;;;;5011608;28;20041;-75
2021/07/02 05:10:54;;;;;;;23.80;14.30;;;15.70;76.90;;;;;;5012808;28;20018;-75
2021/07/02 05:13:19;;;;;;;20.15;12.75;;;16.00;76.50;;;;;;5012682;28;20033;-75
2021/07/02 05:15:47;;;;;;;18.77;11.95;;;17.10;73.80;;;;;;5018364;28;20083;-74
2021/07/02 05:18:13;;;;;;;16.88;11.75;;;18.80;68.70;;;;;;5029908;28;20472;-79
2021/07/02 05:20:43;;;;;;;18.00;12.82;;;20.30;63.20;;;;;;5018802;28;20107;-75
2021/07/02 05:23:09;;;;;;;18.33;11.38;;;21.50;58.00;;;;;;5016137;28;20021;-76
2021/07/02 05:25:34;;;;;;;16.55;10.80;;;22.40;55.60;;;;;;5032457;28;20041;-76
2021/07/02 05:28:00;;;;;;;21.38;11.93;;;22.90;54.50;;;;;;5031334;28;20029;-76
2021/07/02 05:30:27;;;;;;;21.08;12.85;;;23.60;52.20;;;;;;5024137;28;20385;-75
2021/07/02 05:32:52;;;;;;;18.33;12.88;;;24.00;51.70;;;;;;5032409;28;20124;-76
2021/07/02 05:35:18;;;;;;;24.10;16.15;;;24.50;50.80;;;;;;5014256;28;20153;-76
2021/07/02 05:37:44;;;;;;;26.08;18.75;;;24.50;50.70;;;;;;5023526;28;20029;-77
2021/07/02 05:40:12;;;;;;;28.63;19.40;;;24.60;50.90;;;;;;5030931;28;20039;-73
2021/07/02 05:42:37;;;;;;;30.65;19.98;;;24.80;50.60;;;;;;5011434;28;20057;-76
2021/07/02 05:45:04;;;;;;;29.25;19.98;;;24.80;51.30;;;;;;5010629;28;20057;-75
2021/07/02 05:47:34;;;;;;;29.77;21.20;;;25.00;50.40;;;;;;5012521;28;20034;-74
2021/07/02 05:50:00;;;;;;;27.67;21.55;;;25.00;51.20;;;;;;5020491;28;20030;-73
2021/07/02 05:52:26;;;;;;;36.72;23.05;;;24.70;52.20;;;;;;5010034;28;20100;-74
2021/07/02 05:54:52;;;;;;;30.90;23.65;;;24.10;52.50;;;;;;5046063;28;20422;-72
2021/07/02 05:57:17;;;;;;;34.60;24.77;;;22.90;56.10;;;;;;5051127;28;20029;-72
2021/07/02 05:59:43;;;;;;;31.02;24.42;;;21.20;61.50;;;;;;5051995;28;20036;-72
2021/07/02 06:02:08;;;;;;;41.15;26.45;;;20.10;64.90;;;;;;5033111;28;20069;-73
2021/07/02 06:04:34;;;;;;;35.50;26.15;;;19.50;67.30;;;;;;5036815;28;20120;-74
2021/07/02 06:07:00;;;;;;;36.72;27.02;;;19.00;69.10;;;;;;5031603;28;20393;-73
2021/07/02 06:09:29;;;;;;;34.70;27.08;;;18.60;70.90;;;;;;5031785;28;20064;-72
2021/07/02 06:11:54;;;;;;;35.30;25.65;;;18.60;71.40;;;;;;5022408;28;20038;-72
2021/07/02 06:14:20;;;;;;;37.25;27.08;;;18.60;72.10;;;;;;5011287;28;20053;-73
2021/07/02 06:16:46;;;;;;;34.97;25.63;;;18.70;72.30;;;;;;5023767;28;20438;-72
2021/07/02 06:19:11;;;;;;;38.42;27.70;;;18.80;72.10;;;;;;5027477;28;20511;-72
2021/07/02 06:21:37;;;;;;;39.42;28.27;;;18.90;71.60;;;;;;5010322;28;20381;-74
2021/07/02 06:24:03;;;;;;;40.38;29.02;;;19.10;72.10;;;;;;5022349;28;20033;-73
2021/07/02 06:26:29;;;;;;;41.75;28.58;;;19.10;71.20;;;;;;5029088;28;20112;-73
2021/07/02 06:28:55;;;;;;;37.08;29.17;;;19.10;71.00;;;;;;5030039;28;20156;-72
2021/07/02 06:31:20;;;;;;;39.70;28.52;;;19.10;71.40;;;;;;5029264;28;21277;-72
2021/07/02 06:33:46;;;;;;;39.05;28.13;;;19.10;71.00;;;;;;5029961;28;20026;-77
2021/07/02 06:36:12;;;;;;;38.95;29.98;;;19.30;70.20;;;;;;5021545;28;20040;-74
2021/07/02 06:38:38;;;;;;;39.88;29.13;;;19.20;71.50;;;;;;5028376;28;20025;-73
2021/07/02 06:41:03;;;;;;;41.03;31.88;;;19.10;72.50;;;;;;5010609;28;20409;-72
2021/07/02 06:43:31;;;;;;;48.20;35.22;;;19.20;72.00;;;;;;5011497;28;20069;-74
2021/07/02 06:45:56;;;;;;;48.78;36.72;;;19.20;73.10;;;;;;5016665;28;20064;-72
2021/07/02 06:48:22;;;;;;;49.15;36.05;;;19.40;73.30;;;;;;5029842;28;20029;-72
2021/07/02 06:50:48;;;;;;;47.83;37.05;;;19.30;72.70;;;;;;5016530;28;20358;-74
2021/07/02 06:53:15;;;;;;;52.53;39.88;;;19.30;72.20;;;;;;5019359;28;20029;-76
2021/07/02 06:55:41;;;;;;;53.47;41.70;;;19.30;73.00;;;;;;5051003;28;20040;-73
2021/07/02 06:58:09;;;;;;;56.90;43.08;;;19.40;72.60;;;;;;5039415;28;20421;-74
2021/07/02 07:00:37;;;;;;;56.08;43.70;;;19.60;70.90;;;;;;5030857;28;20037;-73
2021/07/02 07:03:03;;;;;;;52.30;41.97;;;19.70;70.60;;;;;;5032612;28;20071;-73
2021/07/02 07:05:29;;;;;;;56.40;42.47;;;19.70;70.60;;;;;;5031623;28;20462;-73
2021/07/02 07:07:55;;;;;;;61.85;43.95;;;19.70;71.40;;;;;;5030362;28;20017;-73
2021/07/02 07:10:21;;;;;;;52.33;41.58;;;19.80;70.50;;;;;;5011575;28;20080;-73
2021/07/02 07:12:46;;;;;;;50.92;42.17;;;19.70;70.40;;;;;;5010711;28;20068;-73
2021/07/02 07:15:13;;;;;;;51.30;41.08;;;19.80;70.10;;;;;;5010643;28;20444;-73
2021/07/02 07:17:39;;;;;;;50.90;39.83;;;19.70;70.20;;;;;;5029281;28;20033;-73
2021/07/02 07:20:05;;;;;;;46.70;38.03;;;19.80;69.40;;;;;;5023272;28;20046;-78
2021/07/02 07:22:32;;;;;;;52.20;41.05;;;20.10;69.80;;;;;;5030285;28;20068;-73
2021/07/02 07:24:58;;;;;;;47.80;39.85;;;20.00;69.10;;;;;;5030472;28;20029;-73
2021/07/02 07:27:24;;;;;;;51.53;40.17;;;19.80;70.60;;;;;;5029475;28;20091;-72
2021/07/02 07:29:49;;;;;;;53.40;43.00;;;19.80;70.80;;;;;;5030265;28;20033;-74
2021/07/02 07:32:15;;;;;;;54.90;43.97;;;20.00;69.90;;;;;;5012636;28;20045;-72
2021/07/02 07:34:52;;;;;;;58.80;45.03;;;20.10;68.60;;;;;;5026920;28;20152;-72
2021/07/02 07:37:20;;;;;;;54.67;43.33;;;20.30;68.10;;;;;;5029348;28;20041;-72
2021/07/02 07:39:47;;;;;;;57.83;43.53;;;20.50;67.10;;;;;;5028900;28;20040;-72
2021/07/02 07:42:12;;;;;;;59.33;45.90;;;20.30;68.50;;;;;;5019808;28;20026;-72
2021/07/02 07:44:38;;;;;;;54.10;44.92;;;20.30;67.80;;;;;;5010455;28;20465;-74
2021/07/02 07:47:04;;;;;;;57.30;45.67;;;20.50;67.70;;;;;;5025461;28;20049;-72
2021/07/02 07:49:29;;;;;;;57.17;46.25;;;20.60;67.90;;;;;;5027125;28;20034;-74
2021/07/02 07:51:59;;;;;;;59.25;46.72;;;20.90;66.90;;;;;;5026201;28;20052;-72
2021/07/02 07:54:25;;;;;;;56.53;45.40;;;20.80;65.80;;;;;;5038537;28;20116;-73
2021/07/02 07:56:51;;;;;;;59.90;47.40;;;20.90;65.50;;;;;;5049513;28;20119;-74
2021/07/02 07:59:21;;;;;;;57.50;47.13;;;20.90;66.60;;;;;;5048305;28;20063;-72
2021/07/02 08:01:47;;;;;;;57.88;46.45;;;21.10;66.10;;;;;;5035697;28;20038;-72
2021/07/02 08:04:14;;;;;;;59.53;46.58;;;21.30;64.00;;;;;;5023337;28;20030;-72
2021/07/02 08:06:44;;;;;;;60.92;46.70;;;21.40;64.40;;;;;;5028710;28;20041;-72
2021/07/02 08:09:11;;;;;;;60.25;47.58;;;21.30;65.90;;;;;;5029252;28;20107;-72
2021/07/02 08:11:38;;;;;;;57.53;45.67;;;21.40;64.60;;;;;;5028429;28;20030;-72
2021/07/02 08:14:05;;;;;;;59.25;47.15;;;21.60;64.20;;;;;;5029108;28;20034;-71
2021/07/02 08:16:31;;;;;;;56.78;44.08;;;21.80;64.80;;;;;;5022214;28;20120;-73
2021/07/02 08:18:56;;;;;;;56.60;46.47;;;21.90;62.70;;;;;;5029825;28;20189;-73
2021/07/02 08:21:22;;;;;;;56.42;44.17;;;21.80;62.80;;;;;;5012365;28;20029;-73
2021/07/02 08:23:48;;;;;;;60.55;48.28;;;21.90;63.00;;;;;;5022884;28;20461;-74
2021/07/02 08:26:14;;;;;;;55.63;43.83;;;22.00;62.30;;;;;;5031073;28;20038;-73
2021/07/02 08:31:24;;;;;;;52.40;42.97;;;22.20;61.30;;;;;;5033215;28;20041;-74
2021/07/02 08:33:50;;;;;;;51.70;41.65;;;22.40;61.70;;;;;;5029721;28;20033;-73
2021/07/02 08:36:15;;;;;;;49.83;41.47;;;22.50;60.40;;;;;;5012022;28;20465;-72
2021/07/02 08:38:41;;;;;;;53.85;43.20;;;22.30;59.70;;;;;;5013481;28;20042;-73
2021/07/02 08:41:11;;;;;;;55.13;43.58;;;22.30;63.00;;;;;;5011751;28;20038;-73
2021/07/02 08:43:38;;;;;;;53.55;41.45;;;22.50;61.20;;;;;;5013709;28;20176;-73
2021/07/02 08:46:04;;;;;;;53.50;41.58;;;22.70;60.80;;;;;;5021231;28;20046;-73
2021/07/02 08:48:31;;;;;;;48.50;37.80;;;23.00;58.40;;;;;;5030849;28;20030;-73
2021/07/02 08:50:56;;;;;;;46.40;36.88;;;23.10;59.80;;;;;;5016396;28;20474;-74
2021/07/02 08:53:22;;;;;;;48.75;37.53;;;23.00;58.60;;;;;;5022455;28;20035;-73
2021/07/02 08:55:50;;;;;;;45.97;36.05;;;23.10;57.50;;;;;;5053239;28;20395;-73
2021/07/02 08:58:15;;;;;;;42.50;33.22;;;22.90;57.80;;;;;;5050002;28;20410;-73
2021/07/02 09:00:43;;;;;;;42.10;35.10;;;23.00;56.40;;;;;;5033220;28;20113;-73
2021/07/02 09:03:27;;;;;;;41.97;34.17;;;23.30;56.20;;;;;;5035851;28;20037;-73
2021/07/02 09:06:19;;;;;;;;;;;23.10;56.40;;;;;;5015095;28;20054;-73
2021/07/02 09:08:58;;;;;;;42.40;32.85;;;23.10;54.90;;;;;;5011298;28;19909;-73
2021/07/02 09:11:35;;;;;;;43.53;32.75;;;23.50;55.10;;;;;;5011355;28;20548;-72
2021/07/02 09:14:03;;;;;;;35.55;29.83;;;23.50;55.10;;;;;;5015595;28;20122;-75
2021/07/02 09:16:36;;;;;;;38.97;30.33;;;23.60;55.10;;;;;;5023539;28;20061;-72
2021/07/02 09:19:28;;;;;;;36.53;29.35;;;23.70;55.10;;;;;;5030120;28;20163;-74
2021/07/02 09:22:19;;;;;;;31.63;26.60;;;23.80;53.30;;;;;;5013343;28;20041;-72
2021/07/02 09:24:48;;;;;;;35.55;29.83;;;23.80;55.00;;;;;;5029287;28;20032;-72
2021/07/02 09:27:31;;;;;;;35.75;30.35;;;23.70;56.40;;;;;;5029768;28;20397;-72
2021/07/02 09:30:06;;;;;;;35.97;28.50;;;23.80;54.60;;;;;;5029092;28;20049;-73
2021/07/02 09:32:32;;;;;;;31.88;27.98;;;23.50;55.70;;;;;;5012717;28;20048;-72
2021/07/02 09:35:01;;;;;;;31.48;26.23;;;23.30;55.00;;;;;;5012476;28;20370;-72
2021/07/02 09:37:29;;;;;;;31.30;24.23;;;23.30;56.80;;;;;;5016205;28;20041;-74
2021/07/02 09:39:55;;;;;;;28.60;21.25;;;23.30;55.10;;;;;;5032193;28;20491;-73
2021/07/02 09:42:29;;;;;;;29.83;23.50;;;23.10;53.30;;;;;;5030982;28;20029;-72
2021/07/02 09:45:14;;;;;;;30.95;24.00;;;22.60;54.30;;;;;;5020973;28;20054;-75
2021/07/02 09:47:40;;;;;;;;;;;22.70;55.20;;;;;;5012757;28;20104;-73
2021/07/02 09:50:22;;;;;;;29.10;22.65;;;23.10;53.10;;;;;;5021038;28;19909;-72
2021/07/02 09:53:00;;;;;;;33.10;25.27;;;23.60;54.30;;;;;;5013970;28;20545;-72
2021/07/02 09:55:30;;;;;;;28.70;22.88;;;23.70;54.10;;;;;;5051559;28;20116;-74
2021/07/02 09:58:05;;;;;;;29.85;21.92;;;23.50;52.00;;;;;;5050815;28;20116;-73
2021/07/02 10:00:51;;;;;;;28.88;22.25;;;23.40;52.20;;;;;;5021210;28;20061;-73
2021/07/02 10:03:19;;;;;;;31.63;24.83;;;23.20;54.10;;;;;;5033636;28;20449;-72
2021/07/02 10:05:59;;;;;;;29.70;23.05;;;23.60;51.30;;;;;;5010345;28;20041;-72
2021/07/02 10:08:26;;;;;;;29.15;24.10;;;23.80;52.50;;;;;;5011519;28;20041;-73
2021/07/02 10:10:54;;;;;;;30.15;23.15;;;24.00;51.90;;;;;;5010477;28;20030;-73
2021/07/02 10:13:22;;;;;;;29.73;24.13;;;24.10;52.20;;;;;;5010062;28;20045;-72
2021/07/02 10:15:50;;;;;;;33.08;25.40;;;24.10;52.00;;;;;;5013478;28;20037;-72
2021/07/02 10:18:16;;;;;;;29.92;25.00;;;23.90;51.40;;;;;;5010146;28;20034;-72
2021/07/02 10:20:44;;;;;;;28.83;22.95;;;24.10;51.20;;;;;;5011597;28;20495;-73
2021/07/02 10:23:11;;;;;;;31.52;24.80;;;24.20;50.20;;;;;;5013448;28;20477;-73
2021/07/02 10:25:45;;;;;;;31.45;25.25;;;24.60;49.60;;;;;;5028998;28;20550;-72
2021/07/02 10:28:12;;;;;;;34.78;26.80;;;24.60;50.20;;;;;;5030767;28;20477;-73
2021/07/02 10:30:40;;;;;;;31.85;24.73;;;24.00;52.20;;;;;;5015370;28;20061;-72
2021/07/02 10:33:06;;;;;;;31.50;24.20;;;24.20;52.90;;;;;;5030851;28;20045;-72
2021/07/02 10:35:34;;;;;;;27.80;20.35;;;24.20;52.30;;;;;;5029582;28;20069;-72
2021/07/02 10:38:00;;;;;;;26.23;21.00;;;23.90;51.50;;;;;;5012558;28;20132;-73
2021/07/02 10:40:31;;;;;;;31.48;23.42;;;23.50;51.50;;;;;;5009146;28;20026;-72
2021/07/02 10:43:23;;;;;;;28.42;22.08;;;23.00;52.60;;;;;;5010218;28;20092;-72
2021/07/02 10:46:07;;;;;;;32.22;23.38;;;22.60;54.50;;;;;;5015882;28;20473;-72
2021/07/02 10:48:52;;;;;;;30.88;24.02;;;23.20;54.60;;;;;;5021609;28;20379;-73
2021/07/02 10:51:30;;;;;;;28.45;22.58;;;23.50;52.70;;;;;;5010644;28;20049;-73
2021/07/02 10:54:14;;;;;;;24.83;20.35;;;23.90;51.40;;;;;;5031382;28;20474;-74
2021/07/02 10:57:04;;;;;;;25.08;18.52;;;24.10;50.90;;;;;;5048840;28;20434;-73
2021/07/02 10:59:40;;;;;;;26.02;19.75;;;24.80;48.80;;;;;;5013450;28;20040;-75
2021/07/02 11:02:09;;;;;;;27.60;21.10;;;25.20;47.70;;;;;;5025607;28;20041;-73
2021/07/02 11:04:52;;;;;;;27.38;21.58;;;25.60;46.40;;;;;;5045753;28;20067;-72
2021/07/02 11:07:21;;;;;;;27.50;20.73;;;25.30;47.50;;;;;;5049910;28;20416;-73
2021/07/02 11:09:50;;;;;;;24.20;20.10;;;25.20;48.70;;;;;;5043393;28;20171;-72
2021/07/02 11:12:19;;;;;;;27.67;20.02;;;25.40;50.00;;;;;;5028586;28;20034;-72
2021/07/02 11:15:03;;;;;;;24.40;19.30;;;25.30;49.60;;;;;;5021623;28;20030;-73
2021/07/02 11:17:49;;;;;;;;;;;25.70;47.80;;;;;;5026115;28;20078;-73
2021/07/02 11:20:17;;;;;;;25.52;22.17;;;26.10;48.60;;;;;;5010259;28;19933;-72
2021/07/02 11:22:43;;;;;;;25.67;21.98;;;25.60;46.80;;;;;;5029294;28;20061;-77
2021/07/02 11:25:22;;;;;;;26.20;21.10;;;25.60;47.80;;;;;;5028217;28;20473;-73
2021/07/02 11:27:51;;;;;;;23.60;19.63;;;25.10;46.00;;;;;;5030629;28;20048;-73
2021/07/02 11:33:02;;;;;;;21.10;17.00;;;24.90;46.80;;;;;;5029942;28;20092;-76
2021/07/02 11:35:33;;;;;;;22.08;17.10;;;25.20;46.30;;;;;;5030166;28;20507;-74
2021/07/02 11:38:11;;;;;;;23.00;17.45;;;25.30;47.00;;;;;;5030556;28;20381;-73
2021/07/02 11:40:50;;;;;;;21.63;15.68;;;25.60;46.90;;;;;;5028491;28;20036;-73
2021/07/02 11:43:23;;;;;;;19.80;15.55;;;25.10;46.50;;;;;;5019737;28;20117;-74
2021/07/02 11:45:51;;;;;;;19.55;16.42;;;25.60;48.00;;;;;;5026478;28;20034;-73
2021/07/02 11:48:20;;;;;;;21.73;15.40;;;25.70;46.40;;;;;;5029547;28;20076;-76
2021/07/02 11:50:49;;;;;;;22.42;17.63;;;25.90;45.90;;;;;;5013959;28;20030;-73
2021/07/02 11:53:31;;;;;;;21.25;16.60;;;26.00;44.00;;;;;;5015520;28;20116;-73
2021/07/02 11:56:05;;;;;;;20.40;16.83;;;26.00;44.80;;;;;;5009015;28;20030;-74
2021/07/02 11:58:32;;;;;;;22.38;18.30;;;25.80;45.80;;;;;;5010241;28;20041;-74
2021/07/02 12:01:17;;;;;;;23.05;19.30;;;25.60;46.50;;;;;;5015329;28;20068;-73
2021/07/02 12:03:48;;;;;;;20.13;17.17;;;25.60;46.40;;;;;;5038162;28;20060;-74
2021/07/02 12:06:32;;;;;;;19.92;15.85;;;25.60;46.10;;;;;;5014101;28;20053;-74
2021/07/02 12:09:13;;;;;;;19.20;16.17;;;25.80;45.40;;;;;;5010521;28;20030;-73
2021/07/02 12:11:45;;;;;;;20.60;15.98;;;25.60;46.70;;;;;;5008664;28;20030;-73
2021/07/02 12:14:12;;;;;;;21.38;16.95;;;25.80;46.30;;;;;;5009848;28;20042;-72
2021/07/02 12:16:43;;;;;;;19.83;15.90;;;25.40;45.40;;;;;;5008596;28;20056;-77
2021/07/02 12:19:17;;;;;;;20.00;16.98;;;24.90;47.30;;;;;;5009554;28;20046;-72
2021/07/02 12:22:00;;;;;;;21.40;16.25;;;25.00;45.20;;;;;;5008585;28;20042;-73
2021/07/02 12:24:28;;;;;;;21.05;15.68;;;25.30;46.30;;;;;;5024032;28;20691;-74
2021/07/02 12:26:59;;;;;;;19.65;15.70;;;25.30;45.80;;;;;;5021603;28;20042;-73
2021/07/02 12:29:30;;;;;;;24.25;16.63;;;25.50;46.20;;;;;;5009361;28;20742;-73
2021/07/02 12:32:07;;;;;;;20.40;16.98;;;25.60;45.70;;;;;;5023526;28;20493;-77
2021/07/02 12:34:42;;;;;;;22.80;18.38;;;26.00;45.50;;;;;;5028256;28;20474;-73
2021/07/02 12:37:18;;;;;;;25.65;20.02;;;26.50;43.70;;;;;;5028297;28;20056;-74
2021/07/02 12:39:47;;;;;;;19.90;16.33;;;26.70;43.10;;;;;;5027352;28;20041;-73